Charlottetown, Prince Edward Island

12:46 PM ADT on September 03, 2015 (GMT -0300)
Charlottetown | | Change Station
CLOSE
Current Station
Airport
Location: Charlottetown,
Elevation: 157 ft
Nearby Weather Stations

Elev 157 ft 46.29 °N, 63.13 °W | Updated 46 minutes ago

Mostly Cloudy
Mostly Cloudy
72 °F
Feels Like 72 °F
N
13
Wind Variable Wind from North
Gusts 23 mph

Today is forecast to be nearly the same temperature as yesterday.

Today
High -- | Low -- °F
--% Chance of Precip.
Yesterday
High -- | Low -- °F
Precip. -- in
6:35 AM 7:47 PM
Waning Gibbous, 69% visible
Pressure 29.78 in
Visibility 15.0 miles
Clouds Few 1700 ft
Mostly Cloudy 6200 ft
Mostly Cloudy 10000 ft
Dew Point 63 °F
Humidity 73%
Rainfall 0.00 in
Snow Depth Not available.
UV 4 out of 12
Pollen Not available.
Air Quality Not available.
Flu Activity Not available.
METAR CYYG 031500Z 35011G20KT 310V010 15SM FEW017 BKN062 BKN100 22/17 A2977 RMK CU2SC3AC1 SLP082 DENSITY ALT 1100FT
Pressure 29.78 in
Visibility 15.0 miles
Clouds Few 1700 ft
Mostly Cloudy 6200 ft
Mostly Cloudy 10000 ft
Dew Point 63 °F
Humidity 73%
Rainfall 0.00 in
Snow Depth Not available.
UV 4 out of 12
Pollen Not available.
Air Quality Not available.
Flu Activity Not available.
METAR CYYG 031500Z 35011G20KT 310V010 15SM FEW017 BKN062 BKN100 22/17 A2977 RMK CU2SC3AC1 SLP082 DENSITY ALT 1100FT

10-Day Weather Forecast

×

Almanac

Astronomy

Sep. 03, 2015 Rise Set
Actual Time
Civil Twilight
Nautical Twilight
Astronomical Twilight
Moon
Length of Visible Light
Length of Day
Tomorrow will be .
, % of the Moon is Illuminated

Today's Extremes

Country Highs Country Lows

Community

WunderPhotos

Upload Photos

1,851,974 photos uploaded!

WunderBlogs® & News

Nearby

Air Quality

  Air Quality AQ Index Pollutant
Not available.

Snow Depth

Station Depth Elevation

Earthquake Activity

City Distance Mag. Time & Date
Minimum magnitude displayed is 2.5.

Coastal Water Temperatures

Place Temperature

Stations

Nearby Weather Stations

Station Location Temp. Windchill Dew Point Humidity Wind Precip. Elev Updated Type